Time;durP1;ratioP1;P1;durP2;ratioP2;P2;SDS_P1;SDS_P2;PMS_P1;PMS_P2;Temp;Humidity;BMP_temperature;BMP_pressure;BME280_temperature;BME280_humidity;BME280_pressure;Samples;Min_cycle;Max_cycle;Signal;HPM_P1;HPM_P2
2022/07/27 00:02:05;;;;;;;2.90;2.63;;;;;;;18.99;100.00;96258.13;5034202;28;104914;-66
2022/07/27 00:04:34;;;;;;;2.90;2.60;;;;;;;18.92;100.00;96248.88;5031497;28;102294;-67
2022/07/27 00:07:01;;;;;;;2.90;2.70;;;;;;;18.79;100.00;96257.78;5030688;27;102669;-67
2022/07/27 00:09:28;;;;;;;4.53;3.10;;;;;;;18.85;100.00;96253.88;5031201;27;101855;-67
2022/07/27 00:11:55;;;;;;;3.37;2.63;;;;;;;18.78;100.00;96254.31;5029618;28;104126;-67
2022/07/27 00:14:23;;;;;;;3.23;2.70;;;;;;;18.84;100.00;96244.19;5029165;28;105847;-66
2022/07/27 00:16:50;;;;;;;4.17;2.73;;;;;;;18.96;100.00;96247.16;5031063;28;101932;-66
2022/07/27 00:19:17;;;;;;;3.17;2.90;;;;;;;18.77;100.00;96243.81;5031222;28;102342;-66
2022/07/27 00:21:45;;;;;;;3.80;2.80;;;;;;;18.54;100.00;96243.00;5030527;28;102585;-66
2022/07/27 00:24:13;;;;;;;4.13;3.00;;;;;;;18.50;100.00;96243.91;5034088;28;101895;-66
2022/07/27 00:26:40;;;;;;;3.77;2.80;;;;;;;18.62;100.00;96236.09;5029036;28;105571;-67
2022/07/27 00:29:07;;;;;;;3.50;2.60;;;;;;;18.69;100.00;96236.50;5029202;28;101989;-67
2022/07/27 00:31:35;;;;;;;2.57;2.20;;;;;;;18.75;100.00;96233.34;5030820;27;102411;-67
2022/07/27 00:34:01;;;;;;;3.23;2.57;;;;;;;18.84;100.00;96228.03;5030074;28;103348;-67
2022/07/27 00:36:29;;;;;;;4.30;2.37;;;;;;;18.72;100.00;96231.28;5030916;28;101786;-65
2022/07/27 00:38:58;;;;;;;2.93;2.60;;;;;;;18.60;100.00;96230.22;5029964;28;103005;-65
2022/07/27 00:41:25;;;;;;;3.10;2.60;;;;;;;18.59;100.00;96220.56;5030122;28;102788;-65
2022/07/27 00:43:54;;;;;;;3.37;2.80;;;;;;;18.57;100.00;96218.16;5030837;28;101916;-65
2022/07/27 00:46:22;;;;;;;3.77;2.80;;;;;;;18.55;100.00;96219.56;5033884;28;102906;-67
2022/07/27 00:48:49;;;;;;;2.97;2.70;;;;;;;18.57;100.00;96222.75;5030717;27;102119;-66
2022/07/27 00:51:18;;;;;;;4.17;2.57;;;;;;;18.50;100.00;96214.28;5030275;28;102267;-67
2022/07/27 00:53:46;;;;;;;2.90;2.57;;;;;;;18.56;100.00;96213.06;5029733;27;102624;-67
2022/07/27 00:56:16;;;;;;;4.10;2.87;;;;;;;18.53;100.00;96208.31;5030750;28;101956;-67
2022/07/27 00:58:47;;;;;;;3.40;2.70;;;;;;;18.60;100.00;96209.47;5030771;28;102539;-67
2022/07/27 01:01:17;;;;;;;2.97;2.77;;;;;;;18.67;100.00;96206.34;5028475;28;105747;-67
2022/07/27 01:03:45;;;;;;;2.97;2.77;;;;;;;18.47;100.00;96212.22;5030771;27;101725;-67
2022/07/27 01:06:13;;;;;;;2.57;2.37;;;;;;;18.45;100.00;96206.31;5030498;28;101748;-67
2022/07/27 01:08:41;;;;;;;4.73;2.63;;;;;;;18.33;100.00;96204.19;5033336;28;103142;-67
2022/07/27 01:11:08;;;;;;;3.63;2.40;;;;;;;18.32;100.00;96209.88;5030386;28;102543;-67
2022/07/27 01:13:37;;;;;;;3.17;2.43;;;;;;;18.24;100.00;96207.84;5029714;28;102824;-67
2022/07/27 01:16:07;;;;;;;2.60;2.40;;;;;;;18.37;100.00;96198.97;5030047;28;102268;-67
2022/07/27 01:18:36;;;;;;;2.97;2.60;;;;;;;18.14;100.00;96197.31;5030361;28;103623;-67
2022/07/27 01:21:06;;;;;;;3.27;2.50;;;;;;;18.37;100.00;96201.69;5029378;28;102745;-66
2022/07/27 01:23:35;;;;;;;2.60;2.30;;;;;;;18.06;100.00;96190.75;5028888;28;102199;-67
2022/07/27 01:26:04;;;;;;;3.43;2.43;;;;;;;17.73;100.00;96191.19;5029996;28;102370;-67
2022/07/27 01:28:31;;;;;;;2.60;2.40;;;;;;;17.84;100.00;96185.31;5028219;28;105841;-66
2022/07/27 01:30:58;;;;;;;5.33;2.40;;;;;;;17.87;100.00;96182.00;5032173;28;102331;-67
2022/07/27 01:33:28;;;;;;;2.57;2.37;;;;;;;17.68;100.00;96184.00;5029710;27;102107;-67
2022/07/27 01:35:57;;;;;;;2.53;2.33;;;;;;;17.47;100.00;96184.69;5030105;28;101695;-67
2022/07/27 01:38:24;;;;;;;2.90;2.67;;;;;;;17.59;100.00;96183.13;5028180;28;105330;-67
2022/07/27 01:40:54;;;;;;;4.20;2.80;;;;;;;17.81;100.00;96183.19;5027885;28;105334;-67
2022/07/27 01:43:21;;;;;;;2.97;2.43;;;;;;;17.99;100.00;96186.88;5029968;27;101772;-66
2022/07/27 01:45:49;;;;;;;6.73;2.60;;;;;;;18.18;100.00;96184.81;5030051;28;102872;-66
2022/07/27 01:48:16;;;;;;;3.37;2.63;;;;;;;18.01;100.00;96176.59;5027905;28;105351;-66
2022/07/27 01:50:43;;;;;;;3.27;2.50;;;;;;;17.58;100.00;96176.16;5033233;28;101911;-66
2022/07/27 01:53:10;;;;;;;2.47;2.27;;;;;;;17.54;100.00;96167.06;5027684;28;106561;-67
2022/07/27 01:55:37;;;;;;;3.17;2.87;;;;;;;17.53;100.00;96170.06;5028451;28;102005;-66
2022/07/27 01:58:07;;;;;;;5.30;2.77;;;;;;;17.74;100.00;96176.63;5028353;28;105508;-66
2022/07/27 02:00:35;;;;;;;4.30;2.80;;;;;;;17.95;100.00;96165.16;5027837;28;105499;-66
2022/07/27 02:03:03;;;;;;;4.00;2.63;;;;;;;18.01;100.00;96172.03;5031778;27;102041;-67
2022/07/27 02:05:29;;;;;;;3.57;2.60;;;;;;;18.01;100.00;96182.78;5033392;28;102386;-67
2022/07/27 02:07:56;;;;;;;2.43;2.20;;;;;;;18.01;100.00;96182.78;5031060;28;104418;-67
2022/07/27 02:10:24;;;;;;;3.10;2.60;;;;;;;18.13;100.00;96180.38;5033436;28;101864;-66
2022/07/27 02:12:50;;;;;;;3.63;2.70;;;;;;;18.18;100.00;96188.31;5036036;28;102062;-67
2022/07/27 02:15:22;;;;;;;2.57;2.37;;;;;;;18.20;100.00;96179.97;5033163;27;101865;-67
2022/07/27 02:17:50;;;;;;;3.20;2.70;;;;;;;18.05;100.00;96178.38;5033187;28;102486;-67
2022/07/27 02:20:19;;;;;;;4.10;2.20;;;;;;;17.96;100.00;96184.78;5030745;28;103770;-67
2022/07/27 02:22:47;;;;;;;3.10;2.80;;;;;;;17.84;100.00;96177.22;5032695;28;102008;-67
2022/07/27 02:25:16;;;;;;;3.00;2.33;;;;;;;17.85;100.00;96183.38;5031581;28;105587;-67
2022/07/27 02:27:44;;;;;;;3.30;3.00;;;;;;;17.72;100.00;96178.84;5030860;28;105417;-67
2022/07/27 02:30:12;;;;;;;5.40;2.53;;;;;;;17.68;100.00;96181.31;5032495;28;101900;-67
2022/07/27 02:32:42;;;;;;;2.50;2.30;;;;;;;18.03;100.00;96185.19;5031255;28;105094;-67
2022/07/27 02:35:09;;;;;;;4.20;2.60;;;;;;;18.12;100.00;96191.41;5035750;27;102686;-67
2022/07/27 02:37:37;;;;;;;2.83;2.53;;;;;;;17.90;100.00;96186.78;5031428;28;104842;-67
2022/07/27 02:40:05;;;;;;;3.97;3.10;;;;;;;17.41;100.00;96194.78;5031645;28;103127;-67
2022/07/27 02:42:32;;;;;;;2.90;2.70;;;;;;;17.53;100.00;96196.94;5031307;28;101935;-67
2022/07/27 02:44:59;;;;;;;4.20;2.50;;;;;;;17.87;100.00;96197.34;5031066;28;105716;-66
2022/07/27 02:47:26;;;;;;;3.93;2.80;;;;;;;17.71;100.00;96198.75;5032067;28;103121;-66
2022/07/27 02:49:55;;;;;;;4.27;2.50;;;;;;;17.61;100.00;96194.34;5032007;28;101942;-67
2022/07/27 02:52:22;;;;;;;3.10;2.57;;;;;;;17.65;100.00;96202.66;5032679;27;102273;-67
2022/07/27 02:54:49;;;;;;;3.27;2.97;;;;;;;17.91;100.00;96203.72;5030410;28;105901;-67
2022/07/27 02:57:16;;;;;;;3.40;2.60;;;;;;;17.73;100.00;96201.94;5034575;28;101955;-66
2022/07/27 02:59:43;;;;;;;3.10;2.63;;;;;;;17.97;100.00;96191.75;5031905;28;102537;-66
2022/07/27 03:02:10;;;;;;;4.53;3.30;;;;;;;17.89;100.00;96189.78;5031139;28;102135;-66
2022/07/27 03:04:37;;;;;;;3.93;2.90;;;;;;;17.50;100.00;96189.50;5031973;28;102270;-66
2022/07/27 03:07:06;;;;;;;3.63;2.53;;;;;;;17.40;100.00;96184.31;5032191;28;102572;-66
2022/07/27 03:09:33;;;;;;;2.77;2.53;;;;;;;17.31;100.00;96181.47;5031001;28;101971;-66
2022/07/27 03:12:00;;;;;;;2.70;2.50;;;;;;;17.36;100.00;96183.25;5030861;28;105256;-66
2022/07/27 03:14:27;;;;;;;4.30;2.33;;;;;;;17.56;100.00;96185.59;5031148;27;103094;-66
2022/07/27 03:16:55;;;;;;;3.70;3.37;;;;;;;17.50;100.00;96187.59;5032230;28;102044;-66
2022/07/27 03:19:22;;;;;;;5.90;3.20;;;;;;;17.47;100.00;96187.38;5035052;27;102230;-66
2022/07/27 03:21:49;;;;;;;2.40;2.20;;;;;;;17.40;100.00;96185.13;5030802;28;102109;-66
2022/07/27 03:24:18;;;;;;;2.93;2.23;;;;;;;17.23;100.00;96186.75;5031888;28;102176;-66
2022/07/27 03:26:45;;;;;;;3.33;2.63;;;;;;;17.26;100.00;96181.56;5030179;28;105434;-66
2022/07/27 03:29:13;;;;;;;3.60;2.63;;;;;;;17.36;100.00;96183.25;5031816;28;101998;-67
2022/07/27 03:31:39;;;;;;;8.17;2.90;;;;;;;17.65;100.00;96181.13;5031952;28;102786;-67
2022/07/27 03:34:06;;;;;;;3.50;2.60;;;;;;;17.47;100.00;96173.94;5029817;28;105751;-67
2022/07/27 03:36:34;;;;;;;3.40;3.10;;;;;;;17.64;100.00;96174.94;5031948;28;101890;-67
2022/07/27 03:39:01;;;;;;;4.50;2.87;;;;;;;17.83;100.00;96177.53;5031221;28;102548;-67
2022/07/27 03:41:30;;;;;;;3.77;2.80;;;;;;;17.85;100.00;96172.63;5034728;27;103023;-67
2022/07/27 03:43:57;;;;;;;3.20;2.90;;;;;;;17.82;100.00;96168.66;5030300;28;105471;-67
2022/07/27 03:46:24;;;;;;;3.20;2.60;;;;;;;17.79;100.00;96168.47;5031132;28;103002;-67
2022/07/27 03:48:51;;;;;;;3.70;2.50;;;;;;;17.79;100.00;96157.69;5030249;28;101977;-67
2022/07/27 03:51:19;;;;;;;3.80;2.67;;;;;;;17.87;100.00;96157.78;5031512;28;102307;-67
2022/07/27 03:53:46;;;;;;;4.03;2.83;;;;;;;17.88;100.00;96167.44;5031012;28;102090;-67
2022/07/27 03:56:13;;;;;;;4.87;2.70;;;;;;;17.81;100.00;96166.25;5030151;28;102152;-67
2022/07/27 03:58:42;;;;;;;3.47;3.10;;;;;;;17.74;100.00;96157.78;5031441;28;102334;-67
2022/07/27 04:01:09;;;;;;;2.70;2.50;;;;;;;17.83;100.00;96164.84;5034147;28;103085;-67
2022/07/27 04:03:36;;;;;;;5.63;3.17;;;;;;;17.79;100.00;96163.06;5031267;28;102218;-67
2022/07/27 04:06:04;;;;;;;2.87;2.67;;;;;;;17.72;100.00;96165.38;5030892;28;102601;-67
2022/07/27 04:08:31;;;;;;;3.57;2.80;;;;;;;17.63;100.00;96164.47;5030101;28;102057;-67
2022/07/27 04:10:58;;;;;;;3.87;2.70;;;;;;;17.49;100.00;96158.34;5031133;28;102996;-66
2022/07/27 04:13:25;;;;;;;3.23;2.60;;;;;;;17.42;100.00;96163.28;5030675;28;102681;-67
2022/07/27 04:15:56;;;;;;;2.70;2.50;;;;;;;17.35;100.00;96169.03;5030085;28;101808;-67
2022/07/27 04:18:24;;;;;;;3.53;2.50;;;;;;;17.38;100.00;96167.66;5031147;28;102137;-66
2022/07/27 04:20:51;;;;;;;3.33;2.27;;;;;;;17.45;100.00;96168.84;5030585;28;102623;-67
2022/07/27 04:23:18;;;;;;;3.30;2.97;;;;;;;17.47;100.00;96173.94;5034641;28;102126;-67
2022/07/27 04:25:45;;;;;;;2.63;2.50;;;;;;;17.70;100.00;96167.56;5029985;27;102575;-65
2022/07/27 04:28:12;;;;;;;4.17;2.93;;;;;;;17.79;100.00;96171.97;5030943;28;101824;-65
2022/07/27 04:30:39;;;;;;;3.00;2.70;;;;;;;17.81;100.00;96166.25;5030809;28;102612;-65
2022/07/27 04:33:08;;;;;;;2.50;2.40;;;;;;;17.96;100.00;96176.69;5028769;28;105836;-65
2022/07/27 04:35:36;;;;;;;3.00;2.67;;;;;;;17.95;100.00;96170.53;5030970;28;102327;-65
2022/07/27 04:38:03;;;;;;;3.27;2.73;;;;;;;17.96;100.00;96165.94;5029650;28;104768;-66
2022/07/27 04:40:32;;;;;;;3.17;2.80;;;;;;;18.12;100.00;96162.63;5030534;28;102633;-65
2022/07/27 04:43:08;;;;;;;3.83;2.90;;;;;;;18.19;100.00;96165.69;5030227;28;101941;-66
2022/07/27 04:45:36;;;;;;;3.77;2.80;;;;;;;18.40;100.00;96164.16;5034020;28;103027;-67
2022/07/27 04:48:05;;;;;;;2.53;2.30;;;;;;;18.19;100.00;96170.25;5029720;28;101864;-66
2022/07/27 04:50:39;;;;;;;2.80;2.50;;;;;;;18.36;100.00;96162.41;5029518;28;105588;-66
2022/07/27 04:53:09;;;;;;;4.27;2.77;;;;;;;18.30;100.00;96175.13;5028693;28;105854;-67
2022/07/27 04:55:36;;;;;;;3.87;2.97;;;;;;;18.32;100.00;96174.88;5029830;28;101857;-67
2022/07/27 04:58:16;;;;;;;3.17;2.87;;;;;;;18.37;100.00;96175.53;5030933;28;101742;-65
2022/07/27 05:00:44;;;;;;;4.93;2.80;;;;;;;18.47;100.00;96174.53;5028849;28;105702;-66
2022/07/27 05:03:12;;;;;;;3.00;2.60;;;;;;;18.42;100.00;96178.09;5029573;28;101944;-65
2022/07/27 05:05:40;;;;;;;3.20;2.80;;;;;;;18.16;100.00;96185.13;5029445;28;105154;-66
2022/07/27 05:08:07;;;;;;;3.53;2.67;;;;;;;18.37;100.00;96175.53;5033606;28;102703;-67
2022/07/27 05:10:34;;;;;;;5.27;3.00;;;;;;;18.05;100.00;96188.34;5030840;27;102260;-68
2022/07/27 05:13:12;;;;;;;4.20;2.87;;;;;;;18.39;100.00;96178.72;5028523;28;103956;-67
2022/07/27 05:15:40;;;;;;;3.70;3.07;;;;;;;18.36;100.00;96187.41;5030684;28;102049;-66
2022/07/27 05:18:07;;;;;;;4.50;2.83;;;;;;;18.22;100.00;96191.22;5030762;27;102592;-66
2022/07/27 05:20:34;;;;;;;7.60;3.87;;;;;;;18.53;100.00;96194.84;5028650;28;105353;-68
2022/07/27 05:26:32;;;;;;;7.87;3.30;;;;;;;18.49;100.00;96191.97;5029163;28;104789;-68
2022/07/27 05:28:59;;;;;;;4.97;3.53;;;;;;;18.54;100.00;96191.81;5029691;28;101804;-67
2022/07/27 05:31:26;;;;;;;4.17;3.40;;;;;;;18.36;100.00;96200.88;5032388;28;101956;-68
2022/07/27 05:33:54;;;;;;;3.40;3.10;;;;;;;18.56;100.00;96202.31;5028278;28;106755;-68
2022/07/27 05:36:21;;;;;;;3.07;2.83;;;;;;;18.80;100.00;96200.91;5028888;27;101744;-68
2022/07/27 05:38:48;;;;;;;5.20;2.80;;;;;;;18.94;100.00;96203.53;5033214;28;102845;-68
2022/07/27 05:41:15;;;;;;;4.83;3.00;;;;;;;18.76;100.00;96199.13;5033131;28;102720;-68
2022/07/27 05:44:00;;;;;;;4.00;3.37;;;;;;;18.53;100.00;96200.22;5032570;28;101991;-68
2022/07/27 05:46:27;;;;;;;3.53;2.90;;;;;;;18.64;100.00;96194.28;5033995;27;102368;-68
2022/07/27 05:48:54;;;;;;;4.07;3.17;;;;;;;18.62;100.00;96199.19;5031792;28;105758;-68
2022/07/27 05:51:21;;;;;;;3.67;3.37;;;;;;;18.38;100.00;96197.88;5032047;28;102030;-68
2022/07/27 05:53:49;;;;;;;3.60;2.83;;;;;;;18.44;100.00;96200.16;5036580;28;102359;-68
2022/07/27 05:56:35;;;;;;;4.17;3.00;;;;;;;18.65;100.00;96200.47;5033712;28;101816;-68
2022/07/27 05:59:04;;;;;;;3.83;3.37;;;;;;;19.08;100.00;96198.88;5033583;28;102361;-68
2022/07/27 06:01:31;;;;;;;4.90;3.13;;;;;;;19.40;100.00;96198.63;5033263;27;103998;-69
2022/07/27 06:04:06;;;;;;;2.90;2.70;;;;;;;18.93;100.00;96205.44;5031835;27;102020;-69
2022/07/27 06:09:18;;;;;;;4.80;3.13;;;;;;;18.57;100.00;96211.97;5033005;28;102598;-69
2022/07/27 06:11:45;;;;;;;3.20;2.90;;;;;;;18.66;100.00;96210.16;5033461;28;103396;-69
2022/07/27 06:14:19;;;;;;;4.00;2.97;;;;;;;18.80;100.00;96217.06;5036219;28;103327;-69
2022/07/27 06:16:46;;;;;;;4.33;3.10;;;;;;;18.79;100.00;96217.38;5033321;28;101762;-68
2022/07/27 06:19:13;;;;;;;4.13;3.20;;;;;;;18.71;100.00;96215.41;5033025;28;102310;-69
2022/07/27 06:21:40;;;;;;;3.83;3.20;;;;;;;18.71;100.00;96213.53;5031258;28;105242;-69
2022/07/27 06:24:16;;;;;;;3.33;3.03;;;;;;;19.08;100.00;96210.44;5031691;28;101914;-68
2022/07/27 06:27:18;;;;;;;4.40;3.27;;;;;;;19.57;100.00;96215.66;5031665;28;106608;-69
2022/07/27 06:29:47;;;;;;;3.63;3.10;;;;;;;19.55;100.00;96206.28;5032455;28;103106;-69
2022/07/27 06:32:14;;;;;;;4.07;2.93;;;;;;;19.29;100.00;96202.69;5033090;27;101765;-67
2022/07/27 06:35:29;;;;;;;5.37;2.97;;;;;;;19.68;100.00;96200.00;5033244;28;102282;-68
2022/07/27 06:37:57;;;;;;;4.07;2.90;;;;;;;19.49;100.00;96202.13;5035656;27;102543;-65
2022/07/27 06:40:24;;;;;;;7.43;3.07;;;;;;;19.88;100.00;96202.09;5031711;28;103808;-67
2022/07/27 06:42:55;;;;;;;3.30;3.00;;;;;;;20.34;100.00;96200.53;5030710;28;105756;-67
2022/07/27 06:45:24;;;;;;;5.33;2.97;;;;;;;20.73;100.00;96204.97;5032835;28;101825;-67
2022/07/27 06:47:51;;;;;;;4.80;2.60;;;;;;;20.67;100.00;96201.66;5030816;27;104857;-68
2022/07/27 06:50:19;;;;;;;3.70;2.83;;;;;;;20.73;100.00;96199.56;5030429;28;105758;-68
2022/07/27 06:52:51;;;;;;;3.37;2.93;;;;;;;21.00;100.00;96191.94;5031171;28;101961;-67
2022/07/27 06:55:19;;;;;;;4.80;2.87;;;;;;;21.18;100.00;96195.41;5032873;28;102441;-68
2022/07/27 06:58:05;;;;;;;3.40;3.03;;;;;;;21.43;100.00;96189.13;5030460;28;105318;-68
2022/07/27 07:00:34;;;;;;;3.73;2.93;;;;;;;21.03;100.00;96193.22;5034678;28;101925;-68
2022/07/27 07:03:07;;;;;;;4.87;2.80;;;;;;;21.14;100.00;96187.13;5030513;28;105520;-69
2022/07/27 07:05:40;;;;;;;3.67;3.00;;;;;;;21.57;100.00;96187.78;5031294;28;101972;-68
2022/07/27 07:08:10;;;;;;;5.00;2.70;;;;;;;21.76;100.00;96184.72;5031357;28;105102;-68
2022/07/27 07:10:38;;;;;;;3.40;2.30;;;;;;;22.01;100.00;96175.69;5031672;28;103786;-66
2022/07/27 07:13:19;;;;;;;2.77;2.57;;;;;;;22.11;100.00;96178.81;5030839;28;101984;-68
2022/07/27 07:15:48;;;;;;;2.70;2.50;;;;;;;21.91;100.00;96171.41;5032447;28;103874;-68
2022/07/27 07:18:15;;;;;;;3.57;2.77;;;;;;;21.73;100.00;96166.41;5047138;27;106231;-68
2022/07/27 07:20:42;;;;;;;3.47;2.50;;;;;;;21.65;100.00;96172.66;5030949;28;101965;-69
2022/07/27 07:23:29;;;;;;;3.20;2.57;;;;;;;21.72;100.00;96167.53;5033769;28;105562;-71
2022/07/27 07:26:07;;;;;;;2.50;2.30;;;;;;;21.66;100.00;96171.53;5031095;28;101867;-69
2022/07/27 07:28:35;;;;;;;3.13;2.87;;;;;;;21.18;100.00;96165.66;5037061;27;104044;-67
2022/07/27 07:31:19;;;;;;;2.53;2.33;;;;;;;21.37;100.00;96169.56;5050411;27;105377;-66
2022/07/27 07:33:48;;;;;;;3.73;2.80;;;;;;;21.43;100.00;96165.59;4962096;28;101863;-68
2022/07/27 07:36:16;;;;;;;5.03;2.80;;;;;;;21.09;100.00;96171.06;4933929;28;105457;-69
2022/07/27 07:38:43;;;;;;;3.87;2.60;;;;;;;21.40;100.00;96176.22;4932477;28;105562;-68
2022/07/27 07:41:10;;;;;;;4.07;2.43;;;;;;;21.98;100.00;96173.63;4933982;28;102121;-68
2022/07/27 07:44:17;;;;;;;4.33;2.13;;;;;;;22.68;100.00;96157.38;4933730;28;105177;-68
2022/07/27 07:46:47;;;;;;;3.10;2.50;;;;;;;22.24;100.00;96168.84;4936727;28;105525;-69
2022/07/27 07:49:13;;;;;;;2.40;2.27;;;;;;;22.20;100.00;96162.50;4933529;28;104931;-68
2022/07/27 07:51:40;;;;;;;3.00;2.70;;;;;;;22.24;100.00;96160.72;4932866;28;106222;-68
2022/07/27 07:54:18;;;;;;;3.00;2.80;;;;;;;22.11;100.00;96164.44;4933685;28;102040;-69
2022/07/27 07:57:40;;;;;;;2.90;2.57;;;;;;;22.63;100.00;96163.00;4950243;28;102342;-67
2022/07/27 08:00:09;;;;;;;2.80;2.60;;;;;;;22.90;100.00;96165.16;4941419;28;105727;-68
2022/07/27 08:02:47;;;;;;;4.67;2.83;;;;;;;23.13;100.00;96160.91;4933772;28;101873;-67
2022/07/27 08:05:15;;;;;;;4.57;2.80;;;;;;;23.01;100.00;96166.31;4933469;28;103928;-69
2022/07/27 08:07:43;;;;;;;7.27;2.60;;;;;;;22.70;100.00;96166.75;4933001;28;105803;-68
2022/07/27 08:10:12;;;;;;;5.30;2.73;;;;;;;22.79;100.00;96164.78;4948082;28;102220;-68
2022/07/27 08:12:43;;;;;;;7.63;2.57;;;;;;;22.86;100.00;96165.03;5030934;28;101975;-68
2022/07/27 08:15:12;;;;;;;5.63;2.40;;;;;;;22.99;100.00;96163.94;5031996;27;101886;-68
2022/07/27 08:17:39;;;;;;;2.73;2.53;;;;;;;22.85;100.00;96157.22;5030114;28;103506;-68
2022/07/27 08:20:10;;;;;;;3.77;2.83;;;;;;;23.23;100.00;96164.03;5030645;28;103325;-68
2022/07/27 08:22:38;;;;;;;3.47;2.63;;;;;;;23.09;100.00;96166.22;5030015;28;101834;-68
2022/07/27 08:25:06;;;;;;;2.73;2.53;;;;;;;23.57;100.00;96158.22;5031331;28;103181;-68
2022/07/27 08:28:06;;;;;;;2.90;2.33;;;;;;;24.20;100.00;96164.91;5035522;27;105718;-69
2022/07/27 08:30:32;;;;;;;4.27;2.67;;;;;;;24.49;100.00;96167.34;5034843;28;101779;-70
2022/07/27 08:33:14;;;;;;;2.77;2.40;;;;;;;24.32;100.00;96162.16;5030673;28;101702;-69
2022/07/27 08:35:42;;;;;;;2.80;2.30;;;;;;;24.52;100.00;96172.09;5042182;27;101803;-69
2022/07/27 08:38:10;;;;;;;2.50;2.30;;;;;;;24.76;100.00;96177.50;5049122;27;103831;-70
2022/07/27 08:40:38;;;;;;;3.63;2.70;;;;;;;23.97;100.00;96177.41;5050206;27;103212;-70
2022/07/27 08:43:19;;;;;;;2.30;2.10;;;;;;;23.89;100.00;96181.00;5051428;27;101938;-69
2022/07/27 08:45:53;;;;;;;2.70;2.50;;;;;;;24.10;100.00;96173.53;5050121;27;105279;-68
2022/07/27 08:48:21;;;;;;;2.87;2.30;;;;;;;24.19;100.00;96176.94;5047261;27;107188;-68
2022/07/27 08:50:51;;;;;;;4.37;2.97;;;;;;;23.97;100.00;96180.13;5039235;27;101995;-65
2022/07/27 08:53:31;;;;;;;5.00;2.83;;;;;;;23.87;100.00;96181.31;5033735;28;102518;-65
2022/07/27 08:55:58;;;;;;;3.00;2.80;;;;;;;23.63;100.00;96178.59;5031247;27;102015;-67
2022/07/27 08:58:25;;;;;;;4.77;3.30;;;;;;;23.43;100.00;96184.88;5051317;27;102364;-67
2022/07/27 09:00:53;;;;;;;4.93;3.70;;;;;;;23.30;100.00;96190.63;5037934;27;101894;-69
2022/07/27 09:03:24;;;;;;;4.07;3.67;;;;;;;23.13;100.00;96185.34;5039448;27;101858;-68
2022/07/27 09:05:54;;;;;;;3.60;3.30;;;;;;;23.62;100.00;96187.88;5029363;28;106414;-69
2022/07/27 09:08:24;;;;;;;4.07;3.67;;;;;;;23.40;100.00;96173.91;5028621;28;105755;-69
2022/07/27 09:10:53;;;;;;;3.87;3.57;;;;;;;23.16;100.00;96176.53;5030409;28;102306;-68
2022/07/27 09:13:25;;;;;;;3.93;3.60;;;;;;;22.91;100.00;96172.97;5030589;27;105519;-68
2022/07/27 09:15:54;;;;;;;5.27;3.90;;;;;;;23.17;100.00;96178.13;5052701;27;105563;-68
2022/07/27 09:18:24;;;;;;;4.07;3.80;;;;;;;23.23;100.00;96176.81;5045846;27;102500;-67
2022/07/27 09:21:21;;;;;;;4.47;3.87;;;;;;;23.28;100.00;96177.38;5048704;27;104064;-68
2022/07/27 09:24:15;;;;;;;3.77;3.47;;;;;;;23.36;100.00;96167.56;5049385;27;102107;-68
2022/07/27 09:27:09;;;;;;;4.10;3.53;;;;;;;24.04;100.00;96174.88;5039579;27;102298;-67
2022/07/27 09:29:37;;;;;;;3.10;2.90;;;;;;;24.16;100.00;96167.53;5029428;28;103137;-67
2022/07/27 09:32:15;;;;;;;4.87;3.60;;;;;;;23.87;100.00;96170.44;5046991;27;101856;-68
2022/07/27 09:34:48;;;;;;;3.60;3.30;;;;;;;23.83;100.00;96177.69;5033791;27;105638;-67
2022/07/27 09:37:23;;;;;;;2.80;2.60;;;;;;;23.90;100.00;96177.16;5028386;28;105573;-66
2022/07/27 09:39:51;;;;;;;2.60;2.40;;;;;;;24.18;100.00;96175.31;5033513;28;101749;-73
2022/07/27 09:42:19;;;;;;;3.10;2.87;;;;;;;24.10;100.00;96179.75;5030030;27;105470;-65
2022/07/27 09:45:05;;;;;;;4.37;2.93;;;;;;;24.16;100.00;96180.31;5028906;28;101883;-69
2022/07/27 09:47:33;;;;;;;4.67;3.50;;;;;;;23.64;100.00;96184.81;5028622;28;105397;-68
2022/07/27 09:50:17;;;;;;;3.60;3.10;;;;;;;24.19;100.00;96190.50;5028028;28;105638;-68
2022/07/27 09:52:47;;;;;;;4.67;3.43;;;;;;;23.79;100.00;96184.94;5028708;28;102062;-69
2022/07/27 09:55:14;;;;;;;3.80;2.87;;;;;;;24.02;100.00;96185.28;5030098;28;102471;-68
2022/07/27 09:58:05;;;;;;;2.20;2.00;;;;;;;24.82;100.00;96193.22;5028214;27;105379;-68
2022/07/27 10:00:32;;;;;;;3.50;2.67;;;;;;;24.75;100.00;96197.69;5028373;28;102002;-69
2022/07/27 10:03:06;;;;;;;2.70;2.30;;;;;;;24.86;100.00;96193.34;5032730;28;102877;-68
2022/07/27 10:05:34;;;;;;;4.30;2.70;;;;;;;25.17;100.00;96198.88;5029914;28;102041;-69
2022/07/27 10:08:03;;;;;;;3.70;3.40;;;;;;;24.59;100.00;96199.53;5029861;27;104955;-67
2022/07/27 10:10:30;;;;;;;3.33;3.03;;;;;;;24.37;100.00;96197.28;5048148;27;105340;-68
2022/07/27 10:13:01;;;;;;;2.60;2.37;;;;;;;24.61;100.00;96197.25;5048607;27;102459;-68
2022/07/27 10:15:28;;;;;;;4.80;2.90;;;;;;;24.15;100.00;96197.75;5034299;27;105108;-69
2022/07/27 10:18:04;;;;;;;2.87;2.60;;;;;;;24.07;100.00;96195.94;5027911;28;105560;-69
2022/07/27 10:20:33;;;;;;;5.77;2.40;;;;;;;24.44;100.00;96197.47;5036044;27;101835;-69
2022/07/27 10:23:27;;;;;;;5.13;2.43;;;;;;;24.20;100.00;96205.69;5036150;27;102531;-69
2022/07/27 10:26:21;;;;;;;4.47;2.07;;;;;;;24.01;100.00;96208.97;5036290;28;101762;-69
2022/07/27 10:28:52;;;;;;;3.20;2.10;;;;;;;24.26;100.00;96202.38;5046157;27;103518;-69
2022/07/27 10:31:21;;;;;;;2.63;2.10;;;;;;;24.60;100.00;96211.97;5036024;27;103208;-69
2022/07/27 10:33:50;;;;;;;2.33;2.00;;;;;;;24.78;100.00;96205.94;5033123;27;101844;-69
2022/07/27 10:36:39;;;;;;;2.03;1.80;;;;;;;24.59;100.00;96210.41;5033461;28;102906;-69
2022/07/27 10:39:08;;;;;;;3.07;1.90;;;;;;;24.22;100.00;96215.06;5032724;27;105495;-69
2022/07/27 10:41:38;;;;;;;2.37;2.17;;;;;;;24.55;100.00;96213.00;5032163;27;102126;-69
2022/07/27 10:44:32;;;;;;;1.97;1.63;;;;;;;25.50;100.00;96207.59;5035566;27;105440;-69
2022/07/27 10:47:01;;;;;;;2.10;2.00;;;;;;;25.66;100.00;96211.91;5032120;27;104914;-67
2022/07/27 10:49:31;;;;;;;2.70;1.90;;;;;;;25.10;100.00;96209.56;5031213;28;105746;-68
2022/07/27 10:51:59;;;;;;;3.10;2.00;;;;;;;25.35;100.00;96214.59;5030731;28;105745;-69
2022/07/27 10:54:40;;;;;;;2.13;1.97;;;;;;;26.01;99.38;96212.03;5032764;28;102188;-69
2022/07/27 10:57:25;;;;;;;4.50;2.50;;;;;;;25.78;98.13;96219.97;5031313;28;105373;-70
2022/07/27 10:59:53;;;;;;;3.10;2.17;;;;;;;25.10;100.00;96206.84;5030466;28;105299;-70
2022/07/27 11:02:41;;;;;;;7.57;2.37;;;;;;;25.94;100.00;96207.19;5031211;28;102013;-70
2022/07/27 11:05:10;;;;;;;1.90;1.80;;;;;;;25.94;90.61;96207.19;5049007;27;104361;-70
2022/07/27 11:07:37;;;;;;;2.23;2.00;;;;;;;26.28;86.29;96211.91;5050194;27;105657;-70
2022/07/27 11:10:07;;;;;;;3.17;1.80;;;;;;;26.03;91.37;96215.97;5055851;27;101948;-69
2022/07/27 11:12:36;;;;;;;4.20;2.13;;;;;;;25.98;84.40;96212.72;5051814;27;103166;-69
2022/07/27 11:15:08;;;;;;;4.27;2.10;;;;;;;26.17;92.11;96201.91;5052561;27;102028;-69
2022/07/27 11:17:35;;;;;;;2.00;1.80;;;;;;;25.82;87.23;96203.75;5052389;27;103298;-69
2022/07/27 11:20:03;;;;;;;2.23;1.70;;;;;;;25.12;95.92;96197.19;5050472;27;105381;-68
2022/07/27 11:22:32;;;;;;;2.30;2.03;;;;;;;25.42;96.25;96200.34;5051349;27;102056;-69
2022/07/27 11:25:12;;;;;;;2.00;1.90;;;;;;;25.27;99.60;96195.66;5052329;27;102972;-68
2022/07/27 11:27:46;;;;;;;4.33;1.93;;;;;;;25.60;95.93;96198.91;5030278;28;105310;-69
2022/07/27 11:30:22;;;;;;;3.03;1.73;;;;;;;26.43;99.06;96189.25;5030625;28;102059;-68
2022/07/27 11:33:05;;;;;;;3.03;1.80;;;;;;;25.80;91.52;96195.13;5033659;28;105463;-68
2022/07/27 11:35:33;;;;;;;2.13;1.70;;;;;;;26.14;87.01;96188.97;5030655;27;102012;-68
2022/07/27 11:38:03;;;;;;;3.87;1.37;;;;;;;26.09;72.86;96191.97;5035802;27;105470;-68
2022/07/27 11:40:45;;;;;;;1.77;1.67;;;;;;;25.82;100.00;96181.94;5040050;27;105191;-68